Terminal Aerodrome Forecast
Issued by NWS

Home | Current Version | Previous Version | Text Only | Print | Product List | Glossary On
Versions: 1 2 3 4 5 6 7 8 9 10 11 12 13 14 15 16 17 18 19 20 21 22 23 24 25 26 27 28 29
000
FTPA31 PHFO 050500 CCA
TAFKOA
TAF COR
PHKO 050557Z 0506/0606 01012KT P6SM VCSH SCT015 SCT035 BKN100
     FM051200 VRB03KT P6SM VCSH SCT015 BKN035 BKN100
     FM051800 30012KT P6SM SCT020 SCT035 BKN100
     FM060200 05012KT P6SM SCT020 SCT035 BKN100=

USA.gov is the U.S. government's official web portal to all federal, state and local government web resources and services.